sensor_id;sensor_type;location;lat;lon;timestamp;P1;durP1;ratioP1;P2;durP2;ratioP2
78402;SDS011;67687;43.508;1.504;2023-08-12T00:00:20;9.18;;;4.55;;
78402;SDS011;67687;43.508;1.504;2023-08-12T00:02:47;9.23;;;4.93;;
78402;SDS011;67687;43.508;1.504;2023-08-12T00:05:14;9.60;;;4.70;;
78402;SDS011;67687;43.508;1.504;2023-08-12T00:07:40;9.48;;;5.15;;
78402;SDS011;67687;43.508;1.504;2023-08-12T00:10:07;9.65;;;4.85;;
78402;SDS011;67687;43.508;1.504;2023-08-12T00:12:35;9.02;;;5.47;;
78402;SDS011;67687;43.508;1.504;2023-08-12T00:15:04;9.65;;;4.97;;
78402;SDS011;67687;43.508;1.504;2023-08-12T00:17:33;9.67;;;5.07;;
78402;SDS011;67687;43.508;1.504;2023-08-12T00:20:01;10.55;;;5.18;;
78402;SDS011;67687;43.508;1.504;2023-08-12T00:22:30;8.07;;;4.50;;
78402;SDS011;67687;43.508;1.504;2023-08-12T00:24:57;9.93;;;4.68;;
78402;SDS011;67687;43.508;1.504;2023-08-12T00:27:24;8.55;;;4.65;;
78402;SDS011;67687;43.508;1.504;2023-08-12T00:29:50;8.80;;;4.83;;
78402;SDS011;67687;43.508;1.504;2023-08-12T00:32:18;9.15;;;4.53;;
78402;SDS011;67687;43.508;1.504;2023-08-12T00:34:45;8.52;;;4.43;;
78402;SDS011;67687;43.508;1.504;2023-08-12T00:37:12;7.55;;;4.50;;
78402;SDS011;67687;43.508;1.504;2023-08-12T00:39:38;10.63;;;4.78;;
78402;SDS011;67687;43.508;1.504;2023-08-12T00:42:05;9.20;;;4.37;;
78402;SDS011;67687;43.508;1.504;2023-08-12T00:44:32;7.82;;;4.68;;
78402;SDS011;67687;43.508;1.504;2023-08-12T00:46:59;9.68;;;4.40;;
78402;SDS011;67687;43.508;1.504;2023-08-12T00:49:27;9.77;;;5.18;;
78402;SDS011;67687;43.508;1.504;2023-08-12T00:51:54;9.27;;;4.63;;
78402;SDS011;67687;43.508;1.504;2023-08-12T00:54:21;9.23;;;4.57;;
78402;SDS011;67687;43.508;1.504;2023-08-12T00:56:48;9.77;;;4.80;;
78402;SDS011;67687;43.508;1.504;2023-08-12T00:59:15;7.30;;;4.80;;
78402;SDS011;67687;43.508;1.504;2023-08-12T01:01:43;11.57;;;5.45;;
78402;SDS011;67687;43.508;1.504;2023-08-12T01:04:10;9.93;;;4.80;;
78402;SDS011;67687;43.508;1.504;2023-08-12T01:06:38;10.20;;;5.30;;
78402;SDS011;67687;43.508;1.504;2023-08-12T01:09:05;9.65;;;4.68;;
78402;SDS011;67687;43.508;1.504;2023-08-12T01:11:35;8.23;;;4.47;;
78402;SDS011;67687;43.508;1.504;2023-08-12T01:14:06;8.98;;;4.63;;
78402;SDS011;67687;43.508;1.504;2023-08-12T01:16:37;8.73;;;4.53;;
78402;SDS011;67687;43.508;1.504;2023-08-12T01:19:06;10.30;;;4.80;;
78402;SDS011;67687;43.508;1.504;2023-08-12T01:21:37;8.43;;;5.15;;
78402;SDS011;67687;43.508;1.504;2023-08-12T01:24:11;8.68;;;5.13;;
78402;SDS011;67687;43.508;1.504;2023-08-12T01:26:38;11.48;;;4.90;;
78402;SDS011;67687;43.508;1.504;2023-08-12T01:29:04;10.68;;;4.88;;
78402;SDS011;67687;43.508;1.504;2023-08-12T01:31:32;9.27;;;5.40;;
78402;SDS011;67687;43.508;1.504;2023-08-12T01:34:02;9.45;;;4.72;;
78402;SDS011;67687;43.508;1.504;2023-08-12T01:36:34;7.20;;;4.80;;
78402;SDS011;67687;43.508;1.504;2023-08-12T01:39:02;8.73;;;5.18;;
78402;SDS011;67687;43.508;1.504;2023-08-12T01:41:31;10.52;;;4.90;;
78402;SDS011;67687;43.508;1.504;2023-08-12T01:43:58;12.10;;;4.90;;
78402;SDS011;67687;43.508;1.504;2023-08-12T01:46:25;9.63;;;4.93;;
78402;SDS011;67687;43.508;1.504;2023-08-12T01:48:51;11.25;;;5.18;;
78402;SDS011;67687;43.508;1.504;2023-08-12T01:51:18;10.15;;;4.95;;
78402;SDS011;67687;43.508;1.504;2023-08-12T01:53:45;8.68;;;4.88;;
78402;SDS011;67687;43.508;1.504;2023-08-12T01:56:12;9.63;;;5.20;;
78402;SDS011;67687;43.508;1.504;2023-08-12T01:58:40;10.95;;;5.28;;
78402;SDS011;67687;43.508;1.504;2023-08-12T02:01:06;8.73;;;4.88;;
78402;SDS011;67687;43.508;1.504;2023-08-12T02:03:33;10.65;;;4.75;;
78402;SDS011;67687;43.508;1.504;2023-08-12T02:06:00;10.90;;;5.32;;
78402;SDS011;67687;43.508;1.504;2023-08-12T02:08:27;7.50;;;4.57;;
78402;SDS011;67687;43.508;1.504;2023-08-12T02:10:53;8.88;;;4.80;;
78402;SDS011;67687;43.508;1.504;2023-08-12T02:13:20;9.93;;;4.90;;
78402;SDS011;67687;43.508;1.504;2023-08-12T02:15:48;11.40;;;5.45;;
78402;SDS011;67687;43.508;1.504;2023-08-12T02:18:15;9.30;;;4.80;;
78402;SDS011;67687;43.508;1.504;2023-08-12T02:20:41;10.23;;;4.97;;
78402;SDS011;67687;43.508;1.504;2023-08-12T02:23:08;8.45;;;5.00;;
78402;SDS011;67687;43.508;1.504;2023-08-12T02:25:35;10.18;;;5.28;;
78402;SDS011;67687;43.508;1.504;2023-08-12T02:28:02;9.27;;;5.18;;
78402;SDS011;67687;43.508;1.504;2023-08-12T02:30:29;8.95;;;5.20;;
78402;SDS011;67687;43.508;1.504;2023-08-12T02:32:57;9.30;;;5.20;;
78402;SDS011;67687;43.508;1.504;2023-08-12T02:35:24;9.80;;;5.13;;
78402;SDS011;67687;43.508;1.504;2023-08-12T02:37:50;9.52;;;5.22;;
78402;SDS011;67687;43.508;1.504;2023-08-12T02:40:17;10.88;;;5.32;;
78402;SDS011;67687;43.508;1.504;2023-08-12T02:42:44;11.25;;;5.68;;
78402;SDS011;67687;43.508;1.504;2023-08-12T02:45:11;8.93;;;5.23;;
78402;SDS011;67687;43.508;1.504;2023-08-12T02:47:37;9.98;;;4.80;;
78402;SDS011;67687;43.508;1.504;2023-08-12T02:50:06;11.10;;;5.15;;
78402;SDS011;67687;43.508;1.504;2023-08-12T02:52:34;10.75;;;5.22;;
78402;SDS011;67687;43.508;1.504;2023-08-12T02:55:01;7.75;;;4.97;;
78402;SDS011;67687;43.508;1.504;2023-08-12T02:57:28;9.20;;;5.13;;
78402;SDS011;67687;43.508;1.504;2023-08-12T02:59:55;11.48;;;5.05;;
78402;SDS011;67687;43.508;1.504;2023-08-12T03:02:22;11.15;;;5.57;;
78402;SDS011;67687;43.508;1.504;2023-08-12T03:04:48;9.02;;;5.28;;
78402;SDS011;67687;43.508;1.504;2023-08-12T03:07:16;10.38;;;5.40;;
78402;SDS011;67687;43.508;1.504;2023-08-12T03:09:44;9.03;;;5.23;;
78402;SDS011;67687;43.508;1.504;2023-08-12T03:12:10;9.63;;;5.03;;
78402;SDS011;67687;43.508;1.504;2023-08-12T03:14:37;8.40;;;5.25;;
78402;SDS011;67687;43.508;1.504;2023-08-12T03:17:04;8.60;;;5.25;;
78402;SDS011;67687;43.508;1.504;2023-08-12T03:19:30;9.88;;;5.25;;
78402;SDS011;67687;43.508;1.504;2023-08-12T03:21:57;10.03;;;6.00;;
78402;SDS011;67687;43.508;1.504;2023-08-12T03:24:25;10.90;;;5.10;;
78402;SDS011;67687;43.508;1.504;2023-08-12T03:26:52;9.88;;;5.40;;
78402;SDS011;67687;43.508;1.504;2023-08-12T03:29:19;9.43;;;5.38;;
78402;SDS011;67687;43.508;1.504;2023-08-12T03:31:46;10.80;;;5.63;;
78402;SDS011;67687;43.508;1.504;2023-08-12T03:34:12;11.10;;;5.67;;
78402;SDS011;67687;43.508;1.504;2023-08-12T03:36:39;8.85;;;5.55;;
78402;SDS011;67687;43.508;1.504;2023-08-12T03:39:06;11.27;;;5.85;;
78402;SDS011;67687;43.508;1.504;2023-08-12T03:41:34;10.05;;;5.18;;
78402;SDS011;67687;43.508;1.504;2023-08-12T03:44:01;9.38;;;5.25;;
78402;SDS011;67687;43.508;1.504;2023-08-12T03:46:27;8.47;;;5.37;;
78402;SDS011;67687;43.508;1.504;2023-08-12T03:48:54;9.27;;;5.78;;
78402;SDS011;67687;43.508;1.504;2023-08-12T03:51:21;11.10;;;5.57;;
78402;SDS011;67687;43.508;1.504;2023-08-12T03:53:48;9.63;;;5.57;;
78402;SDS011;67687;43.508;1.504;2023-08-12T03:56:14;11.45;;;5.38;;
78402;SDS011;67687;43.508;1.504;2023-08-12T03:58:43;10.90;;;5.43;;
78402;SDS011;67687;43.508;1.504;2023-08-12T04:01:10;11.68;;;6.07;;
78402;SDS011;67687;43.508;1.504;2023-08-12T04:03:36;11.85;;;5.85;;
78402;SDS011;67687;43.508;1.504;2023-08-12T04:06:03;13.60;;;6.30;;
78402;SDS011;67687;43.508;1.504;2023-08-12T04:08:30;10.07;;;5.55;;
78402;SDS011;67687;43.508;1.504;2023-08-12T04:10:58;13.10;;;5.67;;
78402;SDS011;67687;43.508;1.504;2023-08-12T04:13:25;9.50;;;5.28;;
78402;SDS011;67687;43.508;1.504;2023-08-12T04:15:53;8.98;;;5.25;;
78402;SDS011;67687;43.508;1.504;2023-08-12T04:18:20;11.30;;;5.82;;
78402;SDS011;67687;43.508;1.504;2023-08-12T04:20:47;11.88;;;6.07;;
78402;SDS011;67687;43.508;1.504;2023-08-12T04:23:15;10.60;;;6.03;;
78402;SDS011;67687;43.508;1.504;2023-08-12T04:25:42;10.23;;;5.75;;
78402;SDS011;67687;43.508;1.504;2023-08-12T04:28:10;11.73;;;5.63;;
78402;SDS011;67687;43.508;1.504;2023-08-12T04:30:39;10.60;;;5.47;;
78402;SDS011;67687;43.508;1.504;2023-08-12T04:33:08;9.20;;;5.60;;
78402;SDS011;67687;43.508;1.504;2023-08-12T04:35:35;11.10;;;5.70;;
78402;SDS011;67687;43.508;1.504;2023-08-12T04:38:02;11.00;;;5.50;;
78402;SDS011;67687;43.508;1.504;2023-08-12T04:40:29;9.75;;;5.18;;
78402;SDS011;67687;43.508;1.504;2023-08-12T04:42:55;8.00;;;5.20;;
78402;SDS011;67687;43.508;1.504;2023-08-12T04:45:22;9.60;;;5.22;;
78402;SDS011;67687;43.508;1.504;2023-08-12T04:47:49;9.17;;;5.63;;
78402;SDS011;67687;43.508;1.504;2023-08-12T04:50:17;11.70;;;6.03;;
78402;SDS011;67687;43.508;1.504;2023-08-12T04:52:44;10.95;;;5.03;;
78402;SDS011;67687;43.508;1.504;2023-08-12T04:55:11;9.13;;;5.40;;
78402;SDS011;67687;43.508;1.504;2023-08-12T04:57:38;10.98;;;5.65;;
78402;SDS011;67687;43.508;1.504;2023-08-12T05:00:05;12.80;;;5.63;;
78402;SDS011;67687;43.508;1.504;2023-08-12T05:02:33;8.82;;;5.30;;
78402;SDS011;67687;43.508;1.504;2023-08-12T05:05:00;12.63;;;5.85;;
78402;SDS011;67687;43.508;1.504;2023-08-12T05:07:28;10.73;;;5.55;;
78402;SDS011;67687;43.508;1.504;2023-08-12T05:09:56;10.63;;;5.80;;
78402;SDS011;67687;43.508;1.504;2023-08-12T05:12:22;14.03;;;5.80;;
78402;SDS011;67687;43.508;1.504;2023-08-12T05:14:49;8.68;;;5.10;;
78402;SDS011;67687;43.508;1.504;2023-08-12T05:17:17;10.43;;;5.60;;
78402;SDS011;67687;43.508;1.504;2023-08-12T05:19:44;10.68;;;5.55;;
78402;SDS011;67687;43.508;1.504;2023-08-12T05:22:11;9.07;;;5.78;;
78402;SDS011;67687;43.508;1.504;2023-08-12T05:24:39;9.83;;;5.50;;
78402;SDS011;67687;43.508;1.504;2023-08-12T05:27:05;10.20;;;5.82;;
78402;SDS011;67687;43.508;1.504;2023-08-12T05:29:32;9.50;;;5.00;;
78402;SDS011;67687;43.508;1.504;2023-08-12T05:31:59;10.20;;;5.38;;
78402;SDS011;67687;43.508;1.504;2023-08-12T05:34:26;10.20;;;6.10;;
78402;SDS011;67687;43.508;1.504;2023-08-12T05:36:53;9.30;;;5.77;;
78402;SDS011;67687;43.508;1.504;2023-08-12T05:39:21;11.23;;;6.68;;
78402;SDS011;67687;43.508;1.504;2023-08-12T05:41:49;8.27;;;6.40;;
78402;SDS011;67687;43.508;1.504;2023-08-12T05:44:17;9.55;;;8.23;;
78402;SDS011;67687;43.508;1.504;2023-08-12T05:46:44;11.70;;;7.15;;
78402;SDS011;67687;43.508;1.504;2023-08-12T05:49:11;9.80;;;7.70;;
78402;SDS011;67687;43.508;1.504;2023-08-12T05:51:37;11.02;;;7.18;;
78402;SDS011;67687;43.508;1.504;2023-08-12T05:54:04;11.25;;;7.20;;
78402;SDS011;67687;43.508;1.504;2023-08-12T05:56:31;10.05;;;7.00;;
78402;SDS011;67687;43.508;1.504;2023-08-12T05:58:59;11.55;;;7.38;;
78402;SDS011;67687;43.508;1.504;2023-08-12T06:01:26;10.23;;;6.63;;
78402;SDS011;67687;43.508;1.504;2023-08-12T06:03:53;8.93;;;6.68;;
78402;SDS011;67687;43.508;1.504;2023-08-12T06:06:19;10.27;;;6.72;;
78402;SDS011;67687;43.508;1.504;2023-08-12T06:08:46;10.32;;;6.93;;
78402;SDS011;67687;43.508;1.504;2023-08-12T06:11:13;9.82;;;6.57;;
78402;SDS011;67687;43.508;1.504;2023-08-12T06:13:40;9.00;;;6.40;;
78402;SDS011;67687;43.508;1.504;2023-08-12T06:16:08;7.80;;;5.63;;
78402;SDS011;67687;43.508;1.504;2023-08-12T06:18:35;8.60;;;6.18;;
78402;SDS011;67687;43.508;1.504;2023-08-12T06:21:02;10.43;;;6.28;;
78402;SDS011;67687;43.508;1.504;2023-08-12T06:23:28;11.15;;;6.30;;
78402;SDS011;67687;43.508;1.504;2023-08-12T06:25:56;10.47;;;6.30;;
78402;SDS011;67687;43.508;1.504;2023-08-12T06:28:22;9.90;;;5.80;;
78402;SDS011;67687;43.508;1.504;2023-08-12T06:30:49;9.40;;;5.95;;
78402;SDS011;67687;43.508;1.504;2023-08-12T06:33:17;9.88;;;5.70;;
78402;SDS011;67687;43.508;1.504;2023-08-12T06:35:44;9.02;;;6.05;;
78402;SDS011;67687;43.508;1.504;2023-08-12T06:38:11;8.43;;;5.47;;
78402;SDS011;67687;43.508;1.504;2023-08-12T06:40:38;7.70;;;4.95;;
78402;SDS011;67687;43.508;1.504;2023-08-12T06:43:05;9.13;;;6.05;;
78402;SDS011;67687;43.508;1.504;2023-08-12T06:45:33;9.25;;;5.80;;
78402;SDS011;67687;43.508;1.504;2023-08-12T06:48:00;10.82;;;5.60;;
78402;SDS011;67687;43.508;1.504;2023-08-12T06:50:28;10.80;;;6.00;;
78402;SDS011;67687;43.508;1.504;2023-08-12T06:52:55;9.77;;;5.82;;
78402;SDS011;67687;43.508;1.504;2023-08-12T06:55:22;10.32;;;5.90;;
78402;SDS011;67687;43.508;1.504;2023-08-12T06:57:49;9.25;;;5.95;;
78402;SDS011;67687;43.508;1.504;2023-08-12T07:00:16;9.48;;;5.50;;
78402;SDS011;67687;43.508;1.504;2023-08-12T07:02:42;9.93;;;6.10;;
78402;SDS011;67687;43.508;1.504;2023-08-12T07:05:09;12.63;;;5.93;;
78402;SDS011;67687;43.508;1.504;2023-08-12T07:07:37;11.52;;;6.28;;
78402;SDS011;67687;43.508;1.504;2023-08-12T07:10:05;10.27;;;6.97;;
78402;SDS011;67687;43.508;1.504;2023-08-12T07:12:32;13.20;;;6.88;;
78402;SDS011;67687;43.508;1.504;2023-08-12T07:14:58;10.87;;;6.73;;
78402;SDS011;67687;43.508;1.504;2023-08-12T07:17:25;14.25;;;7.07;;
78402;SDS011;67687;43.508;1.504;2023-08-12T07:19:52;10.48;;;7.40;;
78402;SDS011;67687;43.508;1.504;2023-08-12T07:22:19;14.88;;;6.95;;
78402;SDS011;67687;43.508;1.504;2023-08-12T07:24:47;10.30;;;6.55;;
78402;SDS011;67687;43.508;1.504;2023-08-12T07:27:14;12.60;;;6.67;;
78402;SDS011;67687;43.508;1.504;2023-08-12T07:29:40;13.15;;;7.53;;
78402;SDS011;67687;43.508;1.504;2023-08-12T07:32:07;12.13;;;7.28;;
78402;SDS011;67687;43.508;1.504;2023-08-12T07:34:34;11.88;;;6.95;;
78402;SDS011;67687;43.508;1.504;2023-08-12T07:37:01;10.82;;;6.85;;
78402;SDS011;67687;43.508;1.504;2023-08-12T07:39:27;12.73;;;7.00;;
78402;SDS011;67687;43.508;1.504;2023-08-12T07:41:55;10.25;;;6.78;;
78402;SDS011;67687;43.508;1.504;2023-08-12T07:44:22;11.45;;;7.20;;
78402;SDS011;67687;43.508;1.504;2023-08-12T07:46:49;12.68;;;7.53;;
78402;SDS011;67687;43.508;1.504;2023-08-12T07:49:15;11.38;;;7.10;;
78402;SDS011;67687;43.508;1.504;2023-08-12T07:51:42;10.90;;;7.20;;
78402;SDS011;67687;43.508;1.504;2023-08-12T07:54:09;10.52;;;6.90;;
78402;SDS011;67687;43.508;1.504;2023-08-12T07:56:36;11.43;;;7.70;;
78402;SDS011;67687;43.508;1.504;2023-08-12T07:59:04;13.77;;;7.38;;
78402;SDS011;67687;43.508;1.504;2023-08-12T08:01:30;11.68;;;7.70;;
78402;SDS011;67687;43.508;1.504;2023-08-12T08:03:57;12.47;;;7.70;;
78402;SDS011;67687;43.508;1.504;2023-08-12T08:06:24;13.23;;;7.40;;
78402;SDS011;67687;43.508;1.504;2023-08-12T08:08:50;12.52;;;7.95;;
78402;SDS011;67687;43.508;1.504;2023-08-12T08:11:17;15.82;;;7.50;;
78402;SDS011;67687;43.508;1.504;2023-08-12T08:13:44;11.93;;;6.95;;
78402;SDS011;67687;43.508;1.504;2023-08-12T08:16:12;10.93;;;7.33;;
78402;SDS011;67687;43.508;1.504;2023-08-12T08:18:39;13.38;;;7.72;;
78402;SDS011;67687;43.508;1.504;2023-08-12T08:21:06;10.98;;;7.22;;
78402;SDS011;67687;43.508;1.504;2023-08-12T08:23:32;13.75;;;7.60;;
78402;SDS011;67687;43.508;1.504;2023-08-12T08:25:59;12.55;;;7.28;;
78402;SDS011;67687;43.508;1.504;2023-08-12T08:28:26;14.37;;;8.00;;
78402;SDS011;67687;43.508;1.504;2023-08-12T08:30:53;14.30;;;7.45;;
78402;SDS011;67687;43.508;1.504;2023-08-12T08:33:21;13.20;;;8.05;;
78402;SDS011;67687;43.508;1.504;2023-08-12T08:35:47;11.30;;;7.13;;
78402;SDS011;67687;43.508;1.504;2023-08-12T08:38:14;12.40;;;7.40;;
78402;SDS011;67687;43.508;1.504;2023-08-12T08:40:41;10.53;;;7.53;;
78402;SDS011;67687;43.508;1.504;2023-08-12T08:43:08;11.65;;;7.35;;
78402;SDS011;67687;43.508;1.504;2023-08-12T08:45:35;11.93;;;7.97;;
78402;SDS011;67687;43.508;1.504;2023-08-12T08:48:02;11.95;;;7.50;;
78402;SDS011;67687;43.508;1.504;2023-08-12T08:50:31;11.50;;;7.50;;
78402;SDS011;67687;43.508;1.504;2023-08-12T08:52:58;12.77;;;7.07;;
78402;SDS011;67687;43.508;1.504;2023-08-12T08:55:26;11.20;;;6.90;;
78402;SDS011;67687;43.508;1.504;2023-08-12T08:57:53;11.13;;;7.07;;
78402;SDS011;67687;43.508;1.504;2023-08-12T09:00:20;11.60;;;8.00;;
78402;SDS011;67687;43.508;1.504;2023-08-12T09:02:47;12.55;;;7.85;;
78402;SDS011;67687;43.508;1.504;2023-08-12T09:05:14;11.47;;;7.13;;
78402;SDS011;67687;43.508;1.504;2023-08-12T09:07:43;11.18;;;7.25;;
78402;SDS011;67687;43.508;1.504;2023-08-12T09:10:10;13.25;;;7.47;;
78402;SDS011;67687;43.508;1.504;2023-08-12T09:12:37;11.02;;;6.82;;
78402;SDS011;67687;43.508;1.504;2023-08-12T09:15:04;15.65;;;7.45;;
78402;SDS011;67687;43.508;1.504;2023-08-12T09:17:32;11.40;;;6.97;;
78402;SDS011;67687;43.508;1.504;2023-08-12T09:19:59;11.13;;;6.75;;
78402;SDS011;67687;43.508;1.504;2023-08-12T09:22:26;10.00;;;6.68;;
78402;SDS011;67687;43.508;1.504;2023-08-12T09:24:57;9.88;;;6.88;;
78402;SDS011;67687;43.508;1.504;2023-08-12T09:27:24;10.02;;;6.95;;
78402;SDS011;67687;43.508;1.504;2023-08-12T09:29:51;10.17;;;7.13;;
78402;SDS011;67687;43.508;1.504;2023-08-12T09:32:22;11.50;;;7.47;;
78402;SDS011;67687;43.508;1.504;2023-08-12T09:34:50;10.18;;;6.43;;
78402;SDS011;67687;43.508;1.504;2023-08-12T09:37:17;13.52;;;6.53;;
78402;SDS011;67687;43.508;1.504;2023-08-12T09:39:45;11.73;;;7.10;;
78402;SDS011;67687;43.508;1.504;2023-08-12T09:42:14;10.23;;;6.47;;
78402;SDS011;67687;43.508;1.504;2023-08-12T09:44:42;11.43;;;6.68;;
78402;SDS011;67687;43.508;1.504;2023-08-12T09:47:09;11.73;;;6.85;;
78402;SDS011;67687;43.508;1.504;2023-08-12T09:49:36;11.98;;;6.80;;
78402;SDS011;67687;43.508;1.504;2023-08-12T09:52:03;9.48;;;6.35;;
78402;SDS011;67687;43.508;1.504;2023-08-12T09:54:34;12.53;;;6.70;;
78402;SDS011;67687;43.508;1.504;2023-08-12T09:57:02;11.10;;;7.03;;
78402;SDS011;67687;43.508;1.504;2023-08-12T09:59:33;12.50;;;7.50;;
78402;SDS011;67687;43.508;1.504;2023-08-12T10:02:00;11.98;;;7.60;;
78402;SDS011;67687;43.508;1.504;2023-08-12T10:04:31;9.63;;;7.50;;
78402;SDS011;67687;43.508;1.504;2023-08-12T10:07:01;11.80;;;7.33;;
78402;SDS011;67687;43.508;1.504;2023-08-12T10:09:29;13.60;;;7.28;;
78402;SDS011;67687;43.508;1.504;2023-08-12T10:11:57;15.35;;;8.07;;
78402;SDS011;67687;43.508;1.504;2023-08-12T10:14:24;12.27;;;6.85;;
78402;SDS011;67687;43.508;1.504;2023-08-12T10:16:53;10.30;;;7.07;;
78402;SDS011;67687;43.508;1.504;2023-08-12T10:19:20;11.30;;;7.20;;
78402;SDS011;67687;43.508;1.504;2023-08-12T10:21:47;11.40;;;7.43;;
78402;SDS011;67687;43.508;1.504;2023-08-12T10:24:14;10.73;;;7.28;;
78402;SDS011;67687;43.508;1.504;2023-08-12T10:26:42;11.10;;;7.43;;
78402;SDS011;67687;43.508;1.504;2023-08-12T10:29:09;12.40;;;7.65;;
78402;SDS011;67687;43.508;1.504;2023-08-12T10:31:37;10.07;;;7.43;;
78402;SDS011;67687;43.508;1.504;2023-08-12T10:34:06;14.45;;;7.45;;
78402;SDS011;67687;43.508;1.504;2023-08-12T10:36:33;12.50;;;7.22;;
78402;SDS011;67687;43.508;1.504;2023-08-12T10:39:00;10.85;;;7.10;;
78402;SDS011;67687;43.508;1.504;2023-08-12T10:41:26;10.95;;;6.88;;
78402;SDS011;67687;43.508;1.504;2023-08-12T10:43:56;9.93;;;7.03;;
78402;SDS011;67687;43.508;1.504;2023-08-12T10:46:28;10.80;;;7.07;;
78402;SDS011;67687;43.508;1.504;2023-08-12T10:48:56;11.50;;;7.30;;
78402;SDS011;67687;43.508;1.504;2023-08-12T10:54:16;9.52;;;6.97;;
78402;SDS011;67687;43.508;1.504;2023-08-12T10:59:51;8.90;;;6.32;;
78402;SDS011;67687;43.508;1.504;2023-08-12T11:02:20;12.82;;;7.00;;
78402;SDS011;67687;43.508;1.504;2023-08-12T11:04:49;11.13;;;6.72;;
78402;SDS011;67687;43.508;1.504;2023-08-12T11:07:20;9.57;;;6.90;;
78402;SDS011;67687;43.508;1.504;2023-08-12T11:09:50;11.50;;;6.23;;
78402;SDS011;67687;43.508;1.504;2023-08-12T11:12:18;12.38;;;6.63;;
78402;SDS011;67687;43.508;1.504;2023-08-12T11:14:48;11.95;;;6.85;;
78402;SDS011;67687;43.508;1.504;2023-08-12T11:17:15;11.30;;;6.53;;
78402;SDS011;67687;43.508;1.504;2023-08-12T11:19:42;9.55;;;6.20;;
78402;SDS011;67687;43.508;1.504;2023-08-12T11:22:09;10.57;;;6.63;;
78402;SDS011;67687;43.508;1.504;2023-08-12T11:24:39;9.50;;;6.22;;
78402;SDS011;67687;43.508;1.504;2023-08-12T11:27:08;10.88;;;6.18;;
78402;SDS011;67687;43.508;1.504;2023-08-12T11:29:36;8.55;;;6.07;;
78402;SDS011;67687;43.508;1.504;2023-08-12T11:32:04;9.98;;;5.88;;
78402;SDS011;67687;43.508;1.504;2023-08-12T11:34:31;11.83;;;6.50;;
78402;SDS011;67687;43.508;1.504;2023-08-12T11:36:58;9.52;;;7.10;;
78402;SDS011;67687;43.508;1.504;2023-08-12T11:39:25;10.55;;;6.78;;
78402;SDS011;67687;43.508;1.504;2023-08-12T11:41:54;10.82;;;6.65;;
78402;SDS011;67687;43.508;1.504;2023-08-12T11:44:22;9.30;;;6.45;;
78402;SDS011;67687;43.508;1.504;2023-08-12T11:46:49;11.00;;;6.57;;
78402;SDS011;67687;43.508;1.504;2023-08-12T11:49:16;11.02;;;6.35;;
78402;SDS011;67687;43.508;1.504;2023-08-12T11:51:44;8.60;;;6.25;;
78402;SDS011;67687;43.508;1.504;2023-08-12T11:54:13;10.05;;;6.47;;
78402;SDS011;67687;43.508;1.504;2023-08-12T11:56:40;10.95;;;7.00;;
78402;SDS011;67687;43.508;1.504;2023-08-12T11:59:08;11.50;;;7.03;;
78402;SDS011;67687;43.508;1.504;2023-08-12T12:01:36;10.35;;;6.07;;
78402;SDS011;67687;43.508;1.504;2023-08-12T12:04:03;10.65;;;6.47;;
78402;SDS011;67687;43.508;1.504;2023-08-12T12:06:30;12.07;;;7.05;;
78402;SDS011;67687;43.508;1.504;2023-08-12T12:09:00;10.98;;;6.80;;
78402;SDS011;67687;43.508;1.504;2023-08-12T12:11:30;10.77;;;6.43;;
78402;SDS011;67687;43.508;1.504;2023-08-12T12:13:59;11.67;;;6.77;;
78402;SDS011;67687;43.508;1.504;2023-08-12T12:16:37;10.40;;;6.28;;
78402;SDS011;67687;43.508;1.504;2023-08-12T12:19:05;10.63;;;5.55;;
78402;SDS011;67687;43.508;1.504;2023-08-12T12:21:38;10.00;;;6.07;;
78402;SDS011;67687;43.508;1.504;2023-08-12T12:24:06;8.95;;;6.03;;
78402;SDS011;67687;43.508;1.504;2023-08-12T12:26:33;10.47;;;5.63;;
78402;SDS011;67687;43.508;1.504;2023-08-12T12:29:00;8.82;;;6.13;;
78402;SDS011;67687;43.508;1.504;2023-08-12T12:31:28;10.25;;;6.40;;
78402;SDS011;67687;43.508;1.504;2023-08-12T12:33:56;10.38;;;5.60;;
78402;SDS011;67687;43.508;1.504;2023-08-12T12:36:23;8.07;;;5.90;;
78402;SDS011;67687;43.508;1.504;2023-08-12T12:38:50;8.67;;;5.47;;
78402;SDS011;67687;43.508;1.504;2023-08-12T12:41:17;9.15;;;5.38;;
78402;SDS011;67687;43.508;1.504;2023-08-12T12:43:44;9.23;;;5.88;;
78402;SDS011;67687;43.508;1.504;2023-08-12T12:46:11;8.60;;;5.47;;
78402;SDS011;67687;43.508;1.504;2023-08-12T12:48:38;8.27;;;5.15;;
78402;SDS011;67687;43.508;1.504;2023-08-12T12:51:07;13.67;;;6.27;;
78402;SDS011;67687;43.508;1.504;2023-08-12T12:53:34;10.38;;;5.75;;
78402;SDS011;67687;43.508;1.504;2023-08-12T12:56:00;8.75;;;5.30;;
78402;SDS011;67687;43.508;1.504;2023-08-12T12:58:29;7.72;;;5.68;;
78402;SDS011;67687;43.508;1.504;2023-08-12T13:00:56;9.38;;;6.15;;
78402;SDS011;67687;43.508;1.504;2023-08-12T13:03:23;9.83;;;6.00;;
78402;SDS011;67687;43.508;1.504;2023-08-12T13:05:50;9.07;;;5.90;;
78402;SDS011;67687;43.508;1.504;2023-08-12T13:08:18;10.63;;;6.05;;
78402;SDS011;67687;43.508;1.504;2023-08-12T13:10:45;8.98;;;6.00;;
78402;SDS011;67687;43.508;1.504;2023-08-12T13:13:12;10.07;;;5.95;;
78402;SDS011;67687;43.508;1.504;2023-08-12T13:15:39;9.23;;;5.70;;
78402;SDS011;67687;43.508;1.504;2023-08-12T13:18:05;9.23;;;5.82;;
78402;SDS011;67687;43.508;1.504;2023-08-12T13:20:33;8.82;;;5.60;;
78402;SDS011;67687;43.508;1.504;2023-08-12T13:23:00;10.35;;;5.55;;
78402;SDS011;67687;43.508;1.504;2023-08-12T13:25:29;10.40;;;6.10;;
78402;SDS011;67687;43.508;1.504;2023-08-12T13:27:57;8.00;;;6.17;;
78402;SDS011;67687;43.508;1.504;2023-08-12T13:30:24;9.32;;;5.72;;
78402;SDS011;67687;43.508;1.504;2023-08-12T13:32:50;10.75;;;6.20;;
78402;SDS011;67687;43.508;1.504;2023-08-12T13:35:17;11.20;;;6.32;;
78402;SDS011;67687;43.508;1.504;2023-08-12T13:37:44;10.02;;;6.30;;
78402;SDS011;67687;43.508;1.504;2023-08-12T13:40:11;11.70;;;5.80;;
78402;SDS011;67687;43.508;1.504;2023-08-12T13:42:39;10.67;;;6.07;;
78402;SDS011;67687;43.508;1.504;2023-08-12T13:45:06;9.65;;;5.60;;
78402;SDS011;67687;43.508;1.504;2023-08-12T13:47:33;8.70;;;6.07;;
78402;SDS011;67687;43.508;1.504;2023-08-12T13:50:00;9.32;;;5.90;;
78402;SDS011;67687;43.508;1.504;2023-08-12T13:52:27;9.70;;;5.75;;
78402;SDS011;67687;43.508;1.504;2023-08-12T13:54:54;8.57;;;6.10;;
78402;SDS011;67687;43.508;1.504;2023-08-12T13:57:20;12.00;;;5.82;;
78402;SDS011;67687;43.508;1.504;2023-08-12T13:59:49;10.45;;;6.20;;
78402;SDS011;67687;43.508;1.504;2023-08-12T14:02:16;8.75;;;5.78;;
78402;SDS011;67687;43.508;1.504;2023-08-12T14:04:42;9.02;;;5.63;;
78402;SDS011;67687;43.508;1.504;2023-08-12T14:07:09;9.00;;;5.57;;
78402;SDS011;67687;43.508;1.504;2023-08-12T14:09:36;9.95;;;5.20;;
78402;SDS011;67687;43.508;1.504;2023-08-12T14:12:02;11.02;;;5.95;;
78402;SDS011;67687;43.508;1.504;2023-08-12T14:14:30;10.48;;;6.07;;
78402;SDS011;67687;43.508;1.504;2023-08-12T14:16:58;10.10;;;5.97;;
78402;SDS011;67687;43.508;1.504;2023-08-12T14:19:25;10.27;;;5.57;;
78402;SDS011;67687;43.508;1.504;2023-08-12T14:21:51;9.25;;;5.40;;
78402;SDS011;67687;43.508;1.504;2023-08-12T14:24:18;8.55;;;5.55;;
78402;SDS011;67687;43.508;1.504;2023-08-12T14:26:45;9.77;;;6.22;;
78402;SDS011;67687;43.508;1.504;2023-08-12T14:29:11;9.50;;;5.63;;
78402;SDS011;67687;43.508;1.504;2023-08-12T14:31:38;8.70;;;5.27;;
78402;SDS011;67687;43.508;1.504;2023-08-12T14:34:07;10.43;;;5.45;;
78402;SDS011;67687;43.508;1.504;2023-08-12T14:36:34;7.68;;;5.68;;
78402;SDS011;67687;43.508;1.504;2023-08-12T14:39:01;11.82;;;6.38;;
78402;SDS011;67687;43.508;1.504;2023-08-12T14:41:28;9.68;;;5.72;;
78402;SDS011;67687;43.508;1.504;2023-08-12T14:43:54;10.00;;;5.57;;
78402;SDS011;67687;43.508;1.504;2023-08-12T14:46:21;13.65;;;6.03;;